sensor_id;sensor_type;location;lat;lon;timestamp;temperature;humidity
9913;DHT22;41380;52.548;13.344;2022-09-29T00:01:16;8.00;99.90
9913;DHT22;41380;52.548;13.344;2022-09-29T00:03:45;7.90;99.90
9913;DHT22;41380;52.548;13.344;2022-09-29T00:06:15;7.90;99.90
9913;DHT22;41380;52.548;13.344;2022-09-29T00:08:43;7.80;99.90
9913;DHT22;41380;52.548;13.344;2022-09-29T00:11:13;7.80;99.90
9913;DHT22;41380;52.548;13.344;2022-09-29T00:13:40;7.80;99.90
9913;DHT22;41380;52.548;13.344;2022-09-29T00:16:07;7.80;99.90
9913;DHT22;41380;52.548;13.344;2022-09-29T00:18:36;7.80;99.90
9913;DHT22;41380;52.548;13.344;2022-09-29T00:21:07;7.80;99.90
9913;DHT22;41380;52.548;13.344;2022-09-29T00:23:35;7.80;99.90
9913;DHT22;41380;52.548;13.344;2022-09-29T00:26:04;7.90;99.90
9913;DHT22;41380;52.548;13.344;2022-09-29T00:28:33;7.90;99.90
9913;DHT22;41380;52.548;13.344;2022-09-29T00:31:03;8.00;99.90
9913;DHT22;41380;52.548;13.344;2022-09-29T00:33:31;8.10;99.90
9913;DHT22;41380;52.548;13.344;2022-09-29T00:35:59;8.10;99.90
9913;DHT22;41380;52.548;13.344;2022-09-29T00:38:29;8.20;99.90
9913;DHT22;41380;52.548;13.344;2022-09-29T00:40:56;8.20;99.90
9913;DHT22;41380;52.548;13.344;2022-09-29T00:43:44;8.20;99.90
9913;DHT22;41380;52.548;13.344;2022-09-29T00:46:11;8.20;99.90
9913;DHT22;41380;52.548;13.344;2022-09-29T00:48:39;8.10;99.90
9913;DHT22;41380;52.548;13.344;2022-09-29T00:51:08;8.00;99.90
9913;DHT22;41380;52.548;13.344;2022-09-29T00:53:36;7.90;99.90
9913;DHT22;41380;52.548;13.344;2022-09-29T00:56:06;7.80;99.90
9913;DHT22;41380;52.548;13.344;2022-09-29T00:58:36;7.80;99.90
9913;DHT22;41380;52.548;13.344;2022-09-29T01:01:04;7.80;99.90
9913;DHT22;41380;52.548;13.344;2022-09-29T01:03:34;7.70;99.90
9913;DHT22;41380;52.548;13.344;2022-09-29T01:06:06;7.60;99.90
9913;DHT22;41380;52.548;13.344;2022-09-29T01:08:40;7.50;99.90
9913;DHT22;41380;52.548;13.344;2022-09-29T01:11:09;7.40;99.90
9913;DHT22;41380;52.548;13.344;2022-09-29T01:13:37;7.40;99.90
9913;DHT22;41380;52.548;13.344;2022-09-29T01:16:07;7.40;99.90
9913;DHT22;41380;52.548;13.344;2022-09-29T01:18:34;7.30;99.90
9913;DHT22;41380;52.548;13.344;2022-09-29T01:21:10;7.30;99.90
9913;DHT22;41380;52.548;13.344;2022-09-29T01:27:35;7.30;99.90
9913;DHT22;41380;52.548;13.344;2022-09-29T01:30:19;7.20;99.90
9913;DHT22;41380;52.548;13.344;2022-09-29T01:33:15;7.20;99.90
9913;DHT22;41380;52.548;13.344;2022-09-29T01:35:54;7.20;99.90
9913;DHT22;41380;52.548;13.344;2022-09-29T01:38:34;7.30;99.90
9913;DHT22;41380;52.548;13.344;2022-09-29T01:41:11;7.30;99.90
9913;DHT22;41380;52.548;13.344;2022-09-29T01:43:44;7.20;99.90
9913;DHT22;41380;52.548;13.344;2022-09-29T01:46:15;7.20;99.90
9913;DHT22;41380;52.548;13.344;2022-09-29T01:48:47;7.20;99.90
9913;DHT22;41380;52.548;13.344;2022-09-29T01:51:18;7.10;99.90
9913;DHT22;41380;52.548;13.344;2022-09-29T01:53:49;7.10;99.90
9913;DHT22;41380;52.548;13.344;2022-09-29T01:56:33;7.10;99.90
9913;DHT22;41380;52.548;13.344;2022-09-29T01:59:05;7.10;99.90
9913;DHT22;41380;52.548;13.344;2022-09-29T02:01:38;7.20;99.90
9913;DHT22;41380;52.548;13.344;2022-09-29T02:04:13;7.10;99.90
9913;DHT22;41380;52.548;13.344;2022-09-29T02:06:46;7.20;99.90
9913;DHT22;41380;52.548;13.344;2022-09-29T02:09:17;7.20;99.90
9913;DHT22;41380;52.548;13.344;2022-09-29T02:11:46;7.20;99.90
9913;DHT22;41380;52.548;13.344;2022-09-29T02:14:16;7.30;99.90
9913;DHT22;41380;52.548;13.344;2022-09-29T02:16:47;7.40;99.90
9913;DHT22;41380;52.548;13.344;2022-09-29T02:19:21;7.50;99.90
9913;DHT22;41380;52.548;13.344;2022-09-29T02:21:48;7.60;99.90
9913;DHT22;41380;52.548;13.344;2022-09-29T02:24:19;7.70;99.90
9913;DHT22;41380;52.548;13.344;2022-09-29T02:26:46;7.80;99.90
9913;DHT22;41380;52.548;13.344;2022-09-29T02:29:14;7.90;99.90
9913;DHT22;41380;52.548;13.344;2022-09-29T02:31:42;8.00;99.90
9913;DHT22;41380;52.548;13.344;2022-09-29T02:34:11;8.10;99.90
9913;DHT22;41380;52.548;13.344;2022-09-29T02:36:48;8.10;99.90
9913;DHT22;41380;52.548;13.344;2022-09-29T02:39:25;8.20;99.90
9913;DHT22;41380;52.548;13.344;2022-09-29T02:42:01;8.30;99.90
9913;DHT22;41380;52.548;13.344;2022-09-29T02:44:40;8.40;99.90
9913;DHT22;41380;52.548;13.344;2022-09-29T02:47:23;8.40;99.90
9913;DHT22;41380;52.548;13.344;2022-09-29T02:50:13;8.50;99.90
9913;DHT22;41380;52.548;13.344;2022-09-29T02:52:50;8.60;99.90
9913;DHT22;41380;52.548;13.344;2022-09-29T02:55:21;8.60;99.90
9913;DHT22;41380;52.548;13.344;2022-09-29T02:57:51;8.60;99.90
9913;DHT22;41380;52.548;13.344;2022-09-29T03:00:19;8.60;99.90
9913;DHT22;41380;52.548;13.344;2022-09-29T03:02:47;8.70;99.90
9913;DHT22;41380;52.548;13.344;2022-09-29T03:05:15;8.70;99.90
9913;DHT22;41380;52.548;13.344;2022-09-29T03:07:45;8.80;99.90
9913;DHT22;41380;52.548;13.344;2022-09-29T03:10:13;8.80;99.90
9913;DHT22;41380;52.548;13.344;2022-09-29T03:12:40;8.80;99.90
9913;DHT22;41380;52.548;13.344;2022-09-29T03:15:09;8.80;99.90
9913;DHT22;41380;52.548;13.344;2022-09-29T03:17:38;8.80;99.90
9913;DHT22;41380;52.548;13.344;2022-09-29T03:20:06;8.90;99.90
9913;DHT22;41380;52.548;13.344;2022-09-29T03:22:33;8.90;99.90
9913;DHT22;41380;52.548;13.344;2022-09-29T03:25:02;8.90;99.90
9913;DHT22;41380;52.548;13.344;2022-09-29T03:27:30;8.90;99.90
9913;DHT22;41380;52.548;13.344;2022-09-29T03:29:57;8.90;99.90
9913;DHT22;41380;52.548;13.344;2022-09-29T03:32:24;8.90;99.90
9913;DHT22;41380;52.548;13.344;2022-09-29T03:34:51;8.90;99.90
9913;DHT22;41380;52.548;13.344;2022-09-29T03:37:18;8.90;99.90
9913;DHT22;41380;52.548;13.344;2022-09-29T03:39:47;8.90;99.90
9913;DHT22;41380;52.548;13.344;2022-09-29T03:42:17;9.00;99.90
9913;DHT22;41380;52.548;13.344;2022-09-29T03:44:47;9.00;99.90
9913;DHT22;41380;52.548;13.344;2022-09-29T03:47:15;9.00;99.90
9913;DHT22;41380;52.548;13.344;2022-09-29T03:49:42;9.00;99.90
9913;DHT22;41380;52.548;13.344;2022-09-29T03:52:09;9.00;99.90
9913;DHT22;41380;52.548;13.344;2022-09-29T03:54:36;9.00;99.90
9913;DHT22;41380;52.548;13.344;2022-09-29T03:57:04;9.00;99.90
9913;DHT22;41380;52.548;13.344;2022-09-29T03:59:32;9.00;99.90
9913;DHT22;41380;52.548;13.344;2022-09-29T04:01:59;9.00;99.90
9913;DHT22;41380;52.548;13.344;2022-09-29T04:04:27;9.00;99.90
9913;DHT22;41380;52.548;13.344;2022-09-29T04:06:54;9.00;99.90
9913;DHT22;41380;52.548;13.344;2022-09-29T04:09:21;9.00;99.90
9913;DHT22;41380;52.548;13.344;2022-09-29T04:11:48;9.00;99.90
9913;DHT22;41380;52.548;13.344;2022-09-29T04:14:15;9.00;99.90
9913;DHT22;41380;52.548;13.344;2022-09-29T04:16:43;9.00;99.90
9913;DHT22;41380;52.548;13.344;2022-09-29T04:19:10;9.00;99.90
9913;DHT22;41380;52.548;13.344;2022-09-29T04:21:38;9.00;99.90
9913;DHT22;41380;52.548;13.344;2022-09-29T04:24:05;9.00;99.90
9913;DHT22;41380;52.548;13.344;2022-09-29T04:26:32;9.00;99.90
9913;DHT22;41380;52.548;13.344;2022-09-29T04:28:59;9.00;99.90
9913;DHT22;41380;52.548;13.344;2022-09-29T04:31:27;9.00;99.90
9913;DHT22;41380;52.548;13.344;2022-09-29T04:33:55;9.00;99.90
9913;DHT22;41380;52.548;13.344;2022-09-29T04:36:22;9.00;99.90
9913;DHT22;41380;52.548;13.344;2022-09-29T04:38:49;9.00;99.90
9913;DHT22;41380;52.548;13.344;2022-09-29T04:41:16;9.00;99.90
9913;DHT22;41380;52.548;13.344;2022-09-29T04:43:46;9.00;99.90
9913;DHT22;41380;52.548;13.344;2022-09-29T04:46:13;9.00;99.90
9913;DHT22;41380;52.548;13.344;2022-09-29T04:48:40;9.00;99.90
9913;DHT22;41380;52.548;13.344;2022-09-29T04:51:09;9.00;99.90
9913;DHT22;41380;52.548;13.344;2022-09-29T04:53:36;9.00;99.90
9913;DHT22;41380;52.548;13.344;2022-09-29T04:56:07;9.10;99.90
9913;DHT22;41380;52.548;13.344;2022-09-29T04:58:34;9.10;99.90
9913;DHT22;41380;52.548;13.344;2022-09-29T05:01:06;9.00;99.90
9913;DHT22;41380;52.548;13.344;2022-09-29T05:03:33;9.10;99.90
9913;DHT22;41380;52.548;13.344;2022-09-29T05:06:03;9.10;99.90
9913;DHT22;41380;52.548;13.344;2022-09-29T05:08:31;9.10;99.90
9913;DHT22;41380;52.548;13.344;2022-09-29T05:11:02;9.10;99.90
9913;DHT22;41380;52.548;13.344;2022-09-29T05:13:32;9.10;99.90
9913;DHT22;41380;52.548;13.344;2022-09-29T05:16:01;9.10;99.90
9913;DHT22;41380;52.548;13.344;2022-09-29T05:18:29;9.10;99.90
9913;DHT22;41380;52.548;13.344;2022-09-29T05:21:00;9.10;99.90
9913;DHT22;41380;52.548;13.344;2022-09-29T05:23:28;9.10;99.90
9913;DHT22;41380;52.548;13.344;2022-09-29T05:26:01;9.10;99.90
9913;DHT22;41380;52.548;13.344;2022-09-29T05:28:32;9.20;99.90
9913;DHT22;41380;52.548;13.344;2022-09-29T05:31:04;9.30;99.90
9913;DHT22;41380;52.548;13.344;2022-09-29T05:33:32;9.20;99.90
9913;DHT22;41380;52.548;13.344;2022-09-29T05:35:59;9.30;99.90
9913;DHT22;41380;52.548;13.344;2022-09-29T05:38:26;9.30;99.90
9913;DHT22;41380;52.548;13.344;2022-09-29T05:40:55;9.40;99.90
9913;DHT22;41380;52.548;13.344;2022-09-29T05:43:24;9.40;99.90
9913;DHT22;41380;52.548;13.344;2022-09-29T05:45:51;9.50;99.90
9913;DHT22;41380;52.548;13.344;2022-09-29T05:48:22;9.50;99.90
9913;DHT22;41380;52.548;13.344;2022-09-29T05:50:51;9.50;99.90
9913;DHT22;41380;52.548;13.344;2022-09-29T05:53:18;9.60;99.90
9913;DHT22;41380;52.548;13.344;2022-09-29T05:55:45;9.70;99.90
9913;DHT22;41380;52.548;13.344;2022-09-29T05:58:11;9.70;99.90
9913;DHT22;41380;52.548;13.344;2022-09-29T06:00:40;9.80;99.90
9913;DHT22;41380;52.548;13.344;2022-09-29T06:03:07;9.80;99.90
9913;DHT22;41380;52.548;13.344;2022-09-29T06:05:39;9.80;99.90
9913;DHT22;41380;52.548;13.344;2022-09-29T06:08:06;9.90;99.90
9913;DHT22;41380;52.548;13.344;2022-09-29T06:10:33;9.90;99.90
9913;DHT22;41380;52.548;13.344;2022-09-29T06:13:00;10.00;99.90
9913;DHT22;41380;52.548;13.344;2022-09-29T06:15:28;10.10;99.90
9913;DHT22;41380;52.548;13.344;2022-09-29T06:17:56;10.10;99.90
9913;DHT22;41380;52.548;13.344;2022-09-29T06:20:26;10.30;99.90
9913;DHT22;41380;52.548;13.344;2022-09-29T06:22:54;10.20;99.90
9913;DHT22;41380;52.548;13.344;2022-09-29T06:25:22;10.30;99.90
9913;DHT22;41380;52.548;13.344;2022-09-29T06:27:50;10.40;99.90
9913;DHT22;41380;52.548;13.344;2022-09-29T06:30:17;10.40;99.90
9913;DHT22;41380;52.548;13.344;2022-09-29T06:32:44;10.50;99.90
9913;DHT22;41380;52.548;13.344;2022-09-29T06:35:12;10.60;99.90
9913;DHT22;41380;52.548;13.344;2022-09-29T06:37:57;10.70;99.90
9913;DHT22;41380;52.548;13.344;2022-09-29T06:40:24;10.60;99.90
9913;DHT22;41380;52.548;13.344;2022-09-29T06:42:52;10.80;99.90
9913;DHT22;41380;52.548;13.344;2022-09-29T06:45:19;10.90;99.90
9913;DHT22;41380;52.548;13.344;2022-09-29T06:47:46;10.90;99.90
9913;DHT22;41380;52.548;13.344;2022-09-29T06:50:16;11.00;99.80
9913;DHT22;41380;52.548;13.344;2022-09-29T06:52:43;11.10;99.80
9913;DHT22;41380;52.548;13.344;2022-09-29T06:55:10;11.20;99.60
9913;DHT22;41380;52.548;13.344;2022-09-29T06:57:37;11.30;99.10
9913;DHT22;41380;52.548;13.344;2022-09-29T07:00:06;11.30;98.90
9913;DHT22;41380;52.548;13.344;2022-09-29T07:02:34;11.40;98.90
9913;DHT22;41380;52.548;13.344;2022-09-29T07:05:01;11.50;98.60
9913;DHT22;41380;52.548;13.344;2022-09-29T07:07:30;11.60;98.10
9913;DHT22;41380;52.548;13.344;2022-09-29T07:09:57;11.60;98.10
9913;DHT22;41380;52.548;13.344;2022-09-29T07:12:23;11.70;98.10
9913;DHT22;41380;52.548;13.344;2022-09-29T07:14:50;11.80;97.90
9913;DHT22;41380;52.548;13.344;2022-09-29T07:17:17;11.90;97.80
9913;DHT22;41380;52.548;13.344;2022-09-29T07:19:45;11.90;97.80
9913;DHT22;41380;52.548;13.344;2022-09-29T07:22:12;12.00;97.70
9913;DHT22;41380;52.548;13.344;2022-09-29T07:24:41;12.10;97.60
9913;DHT22;41380;52.548;13.344;2022-09-29T07:27:08;12.10;97.20
9913;DHT22;41380;52.548;13.344;2022-09-29T07:29:35;12.20;97.10
9913;DHT22;41380;52.548;13.344;2022-09-29T07:32:01;12.30;96.90
9913;DHT22;41380;52.548;13.344;2022-09-29T07:34:28;12.30;96.60
9913;DHT22;41380;52.548;13.344;2022-09-29T07:36:55;12.30;96.60
9913;DHT22;41380;52.548;13.344;2022-09-29T07:39:22;12.40;96.70
9913;DHT22;41380;52.548;13.344;2022-09-29T07:41:50;12.50;96.70
9913;DHT22;41380;52.548;13.344;2022-09-29T07:44:17;12.60;96.30
9913;DHT22;41380;52.548;13.344;2022-09-29T07:46:44;12.80;96.30
9913;DHT22;41380;52.548;13.344;2022-09-29T07:49:11;12.90;96.00
9913;DHT22;41380;52.548;13.344;2022-09-29T07:51:38;13.00;95.80
9913;DHT22;41380;52.548;13.344;2022-09-29T07:54:05;13.10;95.60
9913;DHT22;41380;52.548;13.344;2022-09-29T07:56:32;13.20;95.30
9913;DHT22;41380;52.548;13.344;2022-09-29T07:59:01;13.40;95.10
9913;DHT22;41380;52.548;13.344;2022-09-29T08:01:29;13.40;94.90
9913;DHT22;41380;52.548;13.344;2022-09-29T08:03:56;13.60;94.40
9913;DHT22;41380;52.548;13.344;2022-09-29T08:06:25;13.60;94.50
9913;DHT22;41380;52.548;13.344;2022-09-29T08:08:54;13.60;94.40
9913;DHT22;41380;52.548;13.344;2022-09-29T08:11:21;13.70;94.20
9913;DHT22;41380;52.548;13.344;2022-09-29T08:13:50;13.90;94.20
9913;DHT22;41380;52.548;13.344;2022-09-29T08:16:19;14.00;94.00
9913;DHT22;41380;52.548;13.344;2022-09-29T08:18:46;14.20;93.60
9913;DHT22;41380;52.548;13.344;2022-09-29T08:21:14;14.40;93.50
9913;DHT22;41380;52.548;13.344;2022-09-29T08:23:42;14.50;93.10
9913;DHT22;41380;52.548;13.344;2022-09-29T08:26:12;14.60;92.70
9913;DHT22;41380;52.548;13.344;2022-09-29T08:28:41;14.70;92.50
9913;DHT22;41380;52.548;13.344;2022-09-29T08:31:10;14.70;92.40
9913;DHT22;41380;52.548;13.344;2022-09-29T08:33:39;14.50;92.50
9913;DHT22;41380;52.548;13.344;2022-09-29T08:36:07;14.70;92.70
9913;DHT22;41380;52.548;13.344;2022-09-29T08:38:41;14.80;92.50
9913;DHT22;41380;52.548;13.344;2022-09-29T08:41:19;15.00;92.30
9913;DHT22;41380;52.548;13.344;2022-09-29T08:43:50;15.20;92.00
9913;DHT22;41380;52.548;13.344;2022-09-29T08:46:24;15.30;91.60
9913;DHT22;41380;52.548;13.344;2022-09-29T08:48:56;15.40;91.40
9913;DHT22;41380;52.548;13.344;2022-09-29T08:51:30;15.50;91.30
9913;DHT22;41380;52.548;13.344;2022-09-29T08:54:03;15.70;91.20
9913;DHT22;41380;52.548;13.344;2022-09-29T08:56:32;15.90;91.10
9913;DHT22;41380;52.548;13.344;2022-09-29T08:59:00;16.00;91.00
9913;DHT22;41380;52.548;13.344;2022-09-29T09:01:33;16.30;90.70
9913;DHT22;41380;52.548;13.344;2022-09-29T09:04:22;16.30;90.30
9913;DHT22;41380;52.548;13.344;2022-09-29T09:07:03;16.40;90.00
9913;DHT22;41380;52.548;13.344;2022-09-29T09:10:11;16.50;90.10
9913;DHT22;41380;52.548;13.344;2022-09-29T09:13:06;16.60;89.30
9913;DHT22;41380;52.548;13.344;2022-09-29T09:15:44;16.50;88.30
9913;DHT22;41380;52.548;13.344;2022-09-29T09:21:17;16.50;88.50
9913;DHT22;41380;52.548;13.344;2022-09-29T09:23:53;16.60;88.00
9913;DHT22;41380;52.548;13.344;2022-09-29T09:26:29;16.60;88.40
9913;DHT22;41380;52.548;13.344;2022-09-29T09:29:00;16.60;88.40
9913;DHT22;41380;52.548;13.344;2022-09-29T09:31:34;16.60;88.00
9913;DHT22;41380;52.548;13.344;2022-09-29T09:34:09;16.50;88.30
9913;DHT22;41380;52.548;13.344;2022-09-29T09:36:44;16.50;88.40
9913;DHT22;41380;52.548;13.344;2022-09-29T09:39:15;16.40;88.30
9913;DHT22;41380;52.548;13.344;2022-09-29T09:41:46;16.30;88.60
9913;DHT22;41380;52.548;13.344;2022-09-29T09:44:16;16.30;88.80
9913;DHT22;41380;52.548;13.344;2022-09-29T09:46:48;16.20;89.00
9913;DHT22;41380;52.548;13.344;2022-09-29T09:49:19;16.20;89.10
9913;DHT22;41380;52.548;13.344;2022-09-29T09:51:56;16.10;89.20
9913;DHT22;41380;52.548;13.344;2022-09-29T09:54:32;15.90;89.30
9913;DHT22;41380;52.548;13.344;2022-09-29T10:00:07;16.10;90.00
9913;DHT22;41380;52.548;13.344;2022-09-29T10:02:40;16.30;89.30
9913;DHT22;41380;52.548;13.344;2022-09-29T10:05:10;16.40;88.60
9913;DHT22;41380;52.548;13.344;2022-09-29T10:07:40;16.40;88.00
9913;DHT22;41380;52.548;13.344;2022-09-29T10:10:15;16.50;88.10
9913;DHT22;41380;52.548;13.344;2022-09-29T10:12:44;16.60;86.30
9913;DHT22;41380;52.548;13.344;2022-09-29T10:15:17;16.60;86.60
9913;DHT22;41380;52.548;13.344;2022-09-29T10:17:55;16.40;86.50
9913;DHT22;41380;52.548;13.344;2022-09-29T10:20:36;16.30;86.20
9913;DHT22;41380;52.548;13.344;2022-09-29T10:23:28;16.20;86.80
9913;DHT22;41380;52.548;13.344;2022-09-29T10:26:08;16.50;87.20
9913;DHT22;41380;52.548;13.344;2022-09-29T10:28:45;16.60;86.90
9913;DHT22;41380;52.548;13.344;2022-09-29T10:31:34;16.60;85.80
9913;DHT22;41380;52.548;13.344;2022-09-29T10:34:12;16.80;83.50
9913;DHT22;41380;52.548;13.344;2022-09-29T10:36:51;16.80;83.20
9913;DHT22;41380;52.548;13.344;2022-09-29T10:39:32;16.90;83.70
9913;DHT22;41380;52.548;13.344;2022-09-29T10:42:20;17.10;83.40
9913;DHT22;41380;52.548;13.344;2022-09-29T10:44:50;17.10;82.40
9913;DHT22;41380;52.548;13.344;2022-09-29T10:47:19;16.80;82.10
9913;DHT22;41380;52.548;13.344;2022-09-29T10:49:47;16.40;82.70
9913;DHT22;41380;52.548;13.344;2022-09-29T10:52:23;16.20;83.90
9913;DHT22;41380;52.548;13.344;2022-09-29T10:54:58;16.20;84.70
9913;DHT22;41380;52.548;13.344;2022-09-29T10:57:27;16.10;85.00
9913;DHT22;41380;52.548;13.344;2022-09-29T10:59:56;16.10;85.10
9913;DHT22;41380;52.548;13.344;2022-09-29T11:02:27;16.10;85.20
9913;DHT22;41380;52.548;13.344;2022-09-29T11:05:02;16.10;85.10
9913;DHT22;41380;52.548;13.344;2022-09-29T11:07:31;16.10;85.30
9913;DHT22;41380;52.548;13.344;2022-09-29T11:10:29;16.00;85.30
9913;DHT22;41380;52.548;13.344;2022-09-29T11:12:59;15.80;85.90
9913;DHT22;41380;52.548;13.344;2022-09-29T11:15:39;15.60;86.00
9913;DHT22;41380;52.548;13.344;2022-09-29T11:18:18;15.40;86.40
9913;DHT22;41380;52.548;13.344;2022-09-29T11:20:48;15.30;86.50
9913;DHT22;41380;52.548;13.344;2022-09-29T11:23:36;15.20;86.70
9913;DHT22;41380;52.548;13.344;2022-09-29T11:26:19;15.30;86.90
9913;DHT22;41380;52.548;13.344;2022-09-29T11:29:09;15.30;86.90
9913;DHT22;41380;52.548;13.344;2022-09-29T11:31:51;15.30;87.80
9913;DHT22;41380;52.548;13.344;2022-09-29T11:34:45;15.40;86.90
9913;DHT22;41380;52.548;13.344;2022-09-29T11:37:29;15.40;86.40
9913;DHT22;41380;52.548;13.344;2022-09-29T11:40:03;15.60;86.50
9913;DHT22;41380;52.548;13.344;2022-09-29T11:43:01;15.80;85.70
9913;DHT22;41380;52.548;13.344;2022-09-29T11:45:37;15.90;84.90
9913;DHT22;41380;52.548;13.344;2022-09-29T11:48:27;16.10;84.60
9913;DHT22;41380;52.548;13.344;2022-09-29T11:51:00;16.30;83.70
9913;DHT22;41380;52.548;13.344;2022-09-29T11:53:45;16.40;83.20
9913;DHT22;41380;52.548;13.344;2022-09-29T11:56:27;16.60;82.40
9913;DHT22;41380;52.548;13.344;2022-09-29T11:59:11;16.80;81.20
9913;DHT22;41380;52.548;13.344;2022-09-29T12:01:51;16.90;81.30
9913;DHT22;41380;52.548;13.344;2022-09-29T12:04:31;17.10;80.90
9913;DHT22;41380;52.548;13.344;2022-09-29T12:07:09;17.20;79.50
9913;DHT22;41380;52.548;13.344;2022-09-29T12:12:54;17.50;77.40
9913;DHT22;41380;52.548;13.344;2022-09-29T12:15:32;17.50;76.90
9913;DHT22;41380;52.548;13.344;2022-09-29T12:18:06;17.60;74.60
9913;DHT22;41380;52.548;13.344;2022-09-29T12:20:36;17.60;74.70
9913;DHT22;41380;52.548;13.344;2022-09-29T12:23:10;17.60;75.20
9913;DHT22;41380;52.548;13.344;2022-09-29T12:25:42;17.50;74.90
9913;DHT22;41380;52.548;13.344;2022-09-29T12:28:14;17.50;74.90
9913;DHT22;41380;52.548;13.344;2022-09-29T12:30:48;17.70;75.80
9913;DHT22;41380;52.548;13.344;2022-09-29T12:33:24;18.00;75.60
9913;DHT22;41380;52.548;13.344;2022-09-29T12:36:06;18.30;73.80
9913;DHT22;41380;52.548;13.344;2022-09-29T12:38:59;18.70;72.90
9913;DHT22;41380;52.548;13.344;2022-09-29T12:41:30;19.20;71.50
9913;DHT22;41380;52.548;13.344;2022-09-29T12:44:24;19.50;70.00
9913;DHT22;41380;52.548;13.344;2022-09-29T12:46:58;19.90;69.70
9913;DHT22;41380;52.548;13.344;2022-09-29T12:49:33;20.10;68.30
9913;DHT22;41380;52.548;13.344;2022-09-29T12:52:02;20.40;67.60
9913;DHT22;41380;52.548;13.344;2022-09-29T12:54:34;20.40;67.20
9913;DHT22;41380;52.548;13.344;2022-09-29T12:57:05;20.10;66.40
9913;DHT22;41380;52.548;13.344;2022-09-29T12:59:40;19.60;66.70
9913;DHT22;41380;52.548;13.344;2022-09-29T13:02:27;19.20;67.10
9913;DHT22;41380;52.548;13.344;2022-09-29T13:05:05;19.00;68.80
9913;DHT22;41380;52.548;13.344;2022-09-29T13:08:25;18.80;70.20
9913;DHT22;41380;52.548;13.344;2022-09-29T13:11:02;18.70;70.60
9913;DHT22;41380;52.548;13.344;2022-09-29T13:14:04;18.60;70.20
9913;DHT22;41380;52.548;13.344;2022-09-29T13:16:50;18.50;70.20
9913;DHT22;41380;52.548;13.344;2022-09-29T13:19:38;18.40;70.40
9913;DHT22;41380;52.548;13.344;2022-09-29T13:22:32;18.30;71.30
9913;DHT22;41380;52.548;13.344;2022-09-29T13:25:06;18.20;72.10
9913;DHT22;41380;52.548;13.344;2022-09-29T13:27:40;18.20;72.50
9913;DHT22;41380;52.548;13.344;2022-09-29T13:30:13;18.10;72.20
9913;DHT22;41380;52.548;13.344;2022-09-29T13:32:44;18.00;71.90
9913;DHT22;41380;52.548;13.344;2022-09-29T13:35:15;18.00;72.40
9913;DHT22;41380;52.548;13.344;2022-09-29T13:37:46;17.90;72.90
9913;DHT22;41380;52.548;13.344;2022-09-29T13:40:18;17.90;73.80
9913;DHT22;41380;52.548;13.344;2022-09-29T13:42:46;17.80;73.60
9913;DHT22;41380;52.548;13.344;2022-09-29T13:45:35;17.90;73.30
9913;DHT22;41380;52.548;13.344;2022-09-29T13:48:34;18.00;72.10
9913;DHT22;41380;52.548;13.344;2022-09-29T13:54:30;17.80;71.80
9913;DHT22;41380;52.548;13.344;2022-09-29T13:57:05;17.70;72.80
9913;DHT22;41380;52.548;13.344;2022-09-29T13:59:33;17.70;73.50
9913;DHT22;41380;52.548;13.344;2022-09-29T14:02:12;17.70;74.20
9913;DHT22;41380;52.548;13.344;2022-09-29T14:04:50;17.60;74.80
9913;DHT22;41380;52.548;13.344;2022-09-29T14:07:36;17.50;75.00
9913;DHT22;41380;52.548;13.344;2022-09-29T14:10:06;17.40;73.00
9913;DHT22;41380;52.548;13.344;2022-09-29T14:12:40;17.30;72.20
9913;DHT22;41380;52.548;13.344;2022-09-29T14:15:14;17.20;72.80
9913;DHT22;41380;52.548;13.344;2022-09-29T14:17:46;17.20;74.80
9913;DHT22;41380;52.548;13.344;2022-09-29T14:20:19;17.20;75.70
9913;DHT22;41380;52.548;13.344;2022-09-29T14:22:58;17.10;74.90
9913;DHT22;41380;52.548;13.344;2022-09-29T14:25:48;17.10;75.40
9913;DHT22;41380;52.548;13.344;2022-09-29T14:28:25;17.00;75.00
9913;DHT22;41380;52.548;13.344;2022-09-29T14:30:56;17.10;75.10
9913;DHT22;41380;52.548;13.344;2022-09-29T14:33:33;17.10;75.50
9913;DHT22;41380;52.548;13.344;2022-09-29T14:36:05;17.10;74.40
9913;DHT22;41380;52.548;13.344;2022-09-29T14:38:35;17.10;75.40
9913;DHT22;41380;52.548;13.344;2022-09-29T14:41:24;17.00;75.60
9913;DHT22;41380;52.548;13.344;2022-09-29T14:43:54;16.80;75.50
9913;DHT22;41380;52.548;13.344;2022-09-29T14:53:23;16.80;74.80
9913;DHT22;41380;52.548;13.344;2022-09-29T14:56:01;16.90;74.80
9913;DHT22;41380;52.548;13.344;2022-09-29T14:58:48;16.80;73.20
9913;DHT22;41380;52.548;13.344;2022-09-29T15:01:26;16.70;71.50
9913;DHT22;41380;52.548;13.344;2022-09-29T15:03:56;16.60;72.30
9913;DHT22;41380;52.548;13.344;2022-09-29T15:06:26;16.50;72.00
9913;DHT22;41380;52.548;13.344;2022-09-29T15:08:59;16.40;72.80
9913;DHT22;41380;52.548;13.344;2022-09-29T15:11:32;16.20;73.10
9913;DHT22;41380;52.548;13.344;2022-09-29T15:14:21;16.00;73.90
9913;DHT22;41380;52.548;13.344;2022-09-29T15:17:02;16.00;74.70
9913;DHT22;41380;52.548;13.344;2022-09-29T15:19:48;15.90;74.70
9913;DHT22;41380;52.548;13.344;2022-09-29T15:22:34;15.80;74.70
9913;DHT22;41380;52.548;13.344;2022-09-29T15:25:24;15.50;75.20
9913;DHT22;41380;52.548;13.344;2022-09-29T15:27:57;15.30;76.10
9913;DHT22;41380;52.548;13.344;2022-09-29T15:30:25;15.30;76.50
9913;DHT22;41380;52.548;13.344;2022-09-29T15:33:06;15.20;77.80
9913;DHT22;41380;52.548;13.344;2022-09-29T15:35:42;15.10;78.20
9913;DHT22;41380;52.548;13.344;2022-09-29T15:38:31;15.10;78.30
9913;DHT22;41380;52.548;13.344;2022-09-29T15:41:04;15.10;78.50
9913;DHT22;41380;52.548;13.344;2022-09-29T15:43:41;15.10;78.40
9913;DHT22;41380;52.548;13.344;2022-09-29T15:46:17;15.10;78.40
9913;DHT22;41380;52.548;13.344;2022-09-29T15:49:12;15.10;78.10
9913;DHT22;41380;52.548;13.344;2022-09-29T15:51:41;15.10;78.30
9913;DHT22;41380;52.548;13.344;2022-09-29T15:54:12;15.20;78.20
9913;DHT22;41380;52.548;13.344;2022-09-29T15:56:42;15.10;77.70
9913;DHT22;41380;52.548;13.344;2022-09-29T15:59:48;15.00;77.60
9913;DHT22;41380;52.548;13.344;2022-09-29T16:02:25;14.80;78.30
9913;DHT22;41380;52.548;13.344;2022-09-29T16:04:57;14.60;78.30
9913;DHT22;41380;52.548;13.344;2022-09-29T16:07:29;14.40;78.70
9913;DHT22;41380;52.548;13.344;2022-09-29T16:10:00;14.20;79.60
9913;DHT22;41380;52.548;13.344;2022-09-29T16:12:36;14.00;80.10
9913;DHT22;41380;52.548;13.344;2022-09-29T16:15:06;13.80;80.60
9913;DHT22;41380;52.548;13.344;2022-09-29T16:17:38;13.60;81.20
9913;DHT22;41380;52.548;13.344;2022-09-29T16:20:05;13.50;81.90
9913;DHT22;41380;52.548;13.344;2022-09-29T16:22:33;13.30;82.90
9913;DHT22;41380;52.548;13.344;2022-09-29T16:25:22;13.10;83.40
9913;DHT22;41380;52.548;13.344;2022-09-29T16:27:56;13.00;83.70
9913;DHT22;41380;52.548;13.344;2022-09-29T16:30:28;12.80;84.80
9913;DHT22;41380;52.548;13.344;2022-09-29T16:33:03;12.70;85.90
9913;DHT22;41380;52.548;13.344;2022-09-29T16:35:47;12.60;86.60
9913;DHT22;41380;52.548;13.344;2022-09-29T16:38:28;12.40;86.20